createdAt,value
2022-10-03T00:01:15.718Z,1.83
2022-10-03T00:05:15.062Z,1.58
2022-10-03T00:09:14.922Z,1.60
2022-10-03T00:13:21.102Z,1.63
2022-10-03T00:17:28.092Z,1.73
2022-10-03T00:21:25.203Z,1.75
2022-10-03T00:25:24.432Z,2.00
2022-10-03T00:29:09.051Z,1.70
2022-10-03T00:33:17.357Z,1.73
2022-10-03T00:37:37.496Z,1.73
2022-10-03T00:41:37.492Z,1.70
2022-10-03T00:45:40.977Z,1.33
2022-10-03T00:50:00.391Z,1.40
2022-10-03T00:53:51.137Z,0.80
2022-10-03T00:57:39.071Z,1.00
2022-10-03T01:01:46.169Z,1.00
2022-10-03T01:06:01.058Z,1.17
2022-10-03T01:10:17.132Z,1.30
2022-10-03T01:14:11.206Z,1.10
2022-10-03T01:18:13.620Z,1.10
2022-10-03T01:22:05.622Z,1.00
2022-10-03T01:26:05.697Z,1.13
2022-10-03T01:30:15.997Z,1.00
2022-10-03T01:34:12.965Z,1.08
2022-10-03T01:38:39.284Z,1.08
2022-10-03T01:42:45.890Z,1.02
2022-10-03T01:46:39.742Z,1.20
2022-10-03T01:50:38.557Z,1.25
2022-10-03T01:54:41.391Z,1.10
2022-10-03T01:58:27.570Z,1.30
2022-10-03T02:02:27.557Z,1.70
2022-10-03T02:06:33.346Z,1.42
2022-10-03T02:10:39.937Z,1.45
2022-10-03T02:14:33.952Z,1.25
2022-10-03T02:18:29.089Z,1.30
2022-10-03T02:22:28.551Z,1.38
2022-10-03T02:27:08.413Z,1.42
2022-10-03T02:30:52.897Z,1.40
2022-10-03T02:35:34.166Z,1.45
2022-10-03T02:39:23.030Z,1.38
2022-10-03T02:43:15.889Z,1.48
2022-10-03T02:47:35.224Z,1.38
2022-10-03T02:51:41.968Z,1.42
2022-10-03T02:55:54.966Z,1.58
2022-10-03T03:00:04.220Z,1.55
2022-10-03T03:04:16.635Z,1.58
2022-10-03T03:08:28.142Z,1.55
2022-10-03T03:12:43.256Z,2.10
2022-10-03T03:16:40.213Z,1.98
2022-10-03T03:20:52.407Z,2.30
2022-10-03T03:24:55.952Z,1.95
2022-10-03T03:29:05.415Z,2.40
2022-10-03T03:33:16.615Z,2.10
2022-10-03T03:37:11.732Z,2.08
2022-10-03T03:41:30.274Z,2.50
2022-10-03T03:45:33.062Z,2.17
2022-10-03T03:49:55.348Z,2.15
2022-10-03T03:54:14.375Z,1.90
2022-10-03T03:58:24.288Z,2.33
2022-10-03T04:02:06.690Z,2.38
2022-10-03T04:06:27.172Z,2.50
2022-10-03T04:10:17.398Z,1.92
2022-10-03T04:14:11.542Z,1.70
2022-10-03T04:18:35.062Z,1.83
2022-10-03T04:22:41.444Z,1.90
2022-10-03T04:26:47.420Z,2.10
2022-10-03T04:30:38.542Z,1.70
2022-10-03T04:34:35.114Z,2.30
2022-10-03T04:39:11.342Z,2.00
2022-10-03T04:43:18.184Z,2.35
2022-10-03T04:47:09.743Z,2.28
2022-10-03T04:51:16.127Z,1.90
2022-10-03T04:55:23.267Z,2.08
2022-10-03T04:59:26.450Z,2.40
2022-10-03T05:03:28.839Z,1.95
2022-10-03T05:07:32.886Z,1.83
2022-10-03T05:11:43.976Z,1.80
2022-10-03T05:15:55.728Z,2.42
2022-10-03T05:20:05.605Z,2.45
2022-10-03T05:24:15.593Z,1.73
2022-10-03T05:28:36.943Z,2.10
2022-10-03T05:32:37.499Z,2.08
2022-10-03T05:36:25.367Z,1.80
2022-10-03T05:40:26.364Z,1.90
2022-10-03T05:44:19.299Z,2.00
2022-10-03T05:48:33.523Z,2.13
2022-10-03T05:52:37.361Z,2.08
2022-10-03T05:56:47.669Z,1.88
2022-10-03T06:00:52.838Z,2.10
2022-10-03T06:04:53.447Z,2.20
2022-10-03T06:09:13.877Z,1.83
2022-10-03T06:13:14.489Z,1.88
2022-10-03T06:17:29.067Z,1.90
2022-10-03T06:21:43.111Z,2.10
2022-10-03T06:25:57.528Z,1.95
2022-10-03T06:29:59.221Z,2.00
2022-10-03T06:34:18.445Z,2.15
2022-10-03T06:38:38.142Z,1.98
2022-10-03T06:42:54.099Z,2.05
2022-10-03T06:46:38.903Z,2.30
2022-10-03T06:50:48.549Z,2.40
2022-10-03T06:54:52.329Z,2.00
2022-10-03T06:58:46.126Z,2.00
2022-10-03T07:03:05.673Z,2.17
2022-10-03T07:07:12.549Z,2.05
2022-10-03T07:11:46.823Z,2.10
2022-10-03T07:16:02.124Z,2.10
2022-10-03T07:20:02.895Z,2.15
2022-10-03T07:23:50.813Z,2.15
2022-10-03T07:28:01.085Z,2.35
2022-10-03T07:32:18.283Z,2.00
2022-10-03T07:36:56.316Z,2.10
2022-10-03T07:40:59.665Z,2.13
2022-10-03T07:45:12.385Z,2.13
2022-10-03T07:49:18.795Z,2.20
2022-10-03T07:53:38.198Z,2.25
2022-10-03T07:57:41.906Z,2.28
2022-10-03T08:01:26.881Z,2.00
2022-10-03T08:05:22.100Z,1.88
2022-10-03T08:09:22.992Z,1.85
2022-10-03T08:13:10.972Z,1.90
2022-10-03T08:17:13.918Z,1.80
2022-10-03T08:21:03.908Z,1.90
2022-10-03T08:25:04.465Z,2.03
2022-10-03T08:29:15.489Z,1.90
2022-10-03T08:33:17.373Z,1.80
2022-10-03T08:37:20.787Z,2.00
2022-10-03T08:41:40.107Z,2.10
2022-10-03T08:45:31.148Z,1.90
2022-10-03T08:49:40.831Z,1.60
2022-10-03T08:53:48.287Z,1.80
2022-10-03T09:02:07.687Z,1.80
2022-10-03T09:05:49.638Z,1.52
2022-10-03T09:10:07.604Z,1.60
2022-10-03T09:14:40.076Z,1.65
2022-10-03T09:18:42.361Z,1.50
2022-10-03T09:22:36.937Z,2.00
2022-10-03T09:26:34.040Z,1.60
2022-10-03T09:34:19.992Z,1.38
2022-10-03T09:38:45.658Z,1.70
2022-10-03T09:42:31.149Z,1.20
2022-10-03T09:46:28.119Z,1.60
2022-10-03T09:54:25.948Z,1.40
2022-10-03T09:59:05.869Z,1.90
2022-10-03T10:03:25.058Z,1.52
2022-10-03T10:07:44.459Z,1.58
2022-10-03T10:11:54.431Z,1.75
2022-10-03T10:15:55.148Z,1.55
2022-10-03T10:19:51.977Z,1.70
2022-10-03T10:24:03.597Z,1.52
2022-10-03T10:27:48.366Z,1.40
2022-10-03T10:32:11.551Z,1.50
2022-10-03T10:36:30.091Z,1.70
2022-10-03T10:40:46.673Z,1.63
2022-10-03T10:44:40.481Z,1.60
2022-10-03T10:49:03.623Z,1.60
2022-10-03T10:53:12.257Z,1.77
2022-10-03T10:57:07.792Z,1.30
2022-10-03T11:01:31.276Z,1.52
2022-10-03T11:05:35.216Z,0.90
2022-10-03T11:09:35.097Z,1.17
2022-10-03T11:13:43.692Z,0.95
2022-10-03T11:17:56.105Z,1.00
2022-10-03T11:22:05.656Z,1.00
2022-10-03T11:26:06.090Z,1.00
2022-10-03T11:30:15.553Z,0.80
2022-10-03T11:34:15.980Z,0.93
2022-10-03T11:38:00.508Z,0.73
2022-10-03T11:41:56.366Z,0.98
2022-10-03T11:45:54.146Z,0.70
2022-10-03T11:50:01.050Z,0.80
2022-10-03T11:54:31.081Z,1.13
2022-10-03T11:58:20.763Z,0.90
2022-10-03T12:02:10.205Z,1.00
2022-10-03T12:06:27.272Z,0.80
2022-10-03T12:10:30.795Z,0.88
2022-10-03T12:14:18.826Z,0.73
2022-10-03T12:18:04.676Z,0.98
2022-10-03T12:21:51.931Z,0.85
2022-10-03T12:25:38.957Z,0.88
2022-10-03T12:29:24.901Z,0.85
2022-10-03T12:33:28.130Z,1.00
2022-10-03T12:37:35.140Z,1.00
2022-10-03T12:45:39.612Z,1.00
2022-10-03T12:49:43.251Z,1.10
2022-10-03T12:53:41.748Z,1.20
2022-10-03T12:57:58.536Z,1.10
2022-10-03T13:02:16.107Z,1.00
2022-10-03T13:06:44.554Z,0.68
2022-10-03T13:10:39.390Z,0.70
2022-10-03T13:14:58.673Z,0.68
2022-10-03T13:18:52.618Z,0.52
2022-10-03T13:23:03.358Z,0.70
2022-10-03T13:27:25.199Z,0.68
2022-10-03T13:31:16.142Z,0.70
2022-10-03T13:35:33.997Z,0.47
2022-10-03T13:39:26.053Z,0.82
2022-10-03T13:43:13.817Z,0.60
2022-10-03T13:47:21.560Z,0.60
2022-10-03T13:51:27.853Z,0.60
2022-10-03T13:55:43.952Z,0.63
2022-10-03T13:59:55.036Z,0.50
2022-10-03T14:04:15.988Z,0.60
2022-10-03T14:08:10.194Z,0.70
2022-10-03T14:11:58.073Z,0.50
2022-10-03T14:15:52.717Z,0.60
2022-10-03T14:19:41.568Z,0.60
2022-10-03T14:23:51.309Z,0.60
2022-10-03T14:27:50.592Z,0.50
2022-10-03T14:31:57.374Z,0.57
2022-10-03T14:35:58.592Z,0.60
2022-10-03T14:40:14.753Z,0.52
2022-10-03T14:44:12.690Z,0.55
2022-10-03T14:48:03.261Z,0.38
2022-10-03T14:51:54.227Z,0.35
2022-10-03T14:56:00.153Z,0.40
2022-10-03T14:59:49.899Z,0.38
2022-10-03T15:03:38.866Z,0.40
2022-10-03T15:07:37.432Z,0.52
2022-10-03T15:11:27.510Z,0.38
2022-10-03T15:15:23.662Z,0.52
2022-10-03T15:19:12.962Z,0.40
2022-10-03T15:22:58.489Z,0.35
2022-10-03T15:26:54.346Z,0.50
2022-10-03T15:30:39.341Z,0.30
2022-10-03T15:34:25.689Z,0.40
2022-10-03T15:38:16.146Z,0.50
2022-10-03T15:42:29.046Z,0.50
2022-10-03T15:46:39.745Z,0.70
2022-10-03T15:50:33.535Z,0.45
2022-10-03T15:54:21.957Z,0.65
2022-10-03T15:58:38.214Z,0.75
2022-10-03T16:02:26.795Z,0.60
2022-10-03T16:06:08.733Z,0.65
2022-10-03T16:10:20.529Z,0.60
2022-10-03T16:14:08.284Z,0.55
2022-10-03T16:17:55.984Z,0.52
2022-10-03T16:21:48.083Z,0.60
2022-10-03T16:25:59.906Z,0.50
2022-10-03T16:29:50.056Z,0.40
2022-10-03T16:33:38.390Z,0.40
2022-10-03T16:37:25.222Z,0.38
2022-10-03T16:41:23.023Z,0.50
2022-10-03T16:45:08.121Z,0.50
2022-10-03T16:49:10.607Z,0.40
2022-10-03T16:52:56.720Z,0.50
2022-10-03T16:56:45.259Z,0.40
2022-10-03T17:01:25.403Z,0.40
2022-10-03T17:05:09.572Z,0.43
2022-10-03T17:08:54.442Z,0.30
2022-10-03T17:12:45.940Z,0.20
2022-10-03T17:16:34.150Z,0.30
2022-10-03T17:20:22.809Z,0.50
2022-10-03T17:24:07.586Z,0.40
2022-10-03T17:27:50.975Z,0.32
2022-10-03T17:32:11.635Z,1.70
2022-10-03T17:36:16.624Z,1.95
2022-10-03T17:40:32.378Z,1.10
2022-10-03T17:44:26.218Z,0.77
2022-10-03T17:48:28.797Z,1.63
2022-10-03T17:52:23.520Z,0.70
2022-10-03T17:56:11.216Z,1.17
2022-10-03T18:00:16.685Z,0.90
2022-10-03T18:04:03.413Z,0.80
2022-10-03T18:11:30.544Z,0.60
2022-10-03T18:15:30.932Z,0.90
2022-10-03T18:19:31.800Z,0.80
2022-10-03T18:23:53.739Z,0.40
2022-10-03T18:27:38.333Z,0.40
2022-10-03T18:31:22.800Z,0.40
2022-10-03T18:35:09.197Z,0.50
2022-10-03T18:39:03.594Z,0.70
2022-10-03T18:42:50.396Z,0.50
2022-10-03T18:46:45.266Z,0.40
2022-10-03T18:50:30.138Z,0.30
2022-10-03T18:54:26.169Z,0.40
2022-10-03T18:58:20.628Z,0.32
2022-10-03T19:02:05.662Z,0.40
2022-10-03T19:06:22.026Z,0.50
2022-10-03T19:10:24.910Z,1.00
2022-10-03T19:14:26.910Z,0.70
2022-10-03T19:18:46.913Z,0.85
2022-10-03T19:22:37.181Z,1.23
2022-10-03T19:26:33.534Z,1.38
2022-10-03T19:30:29.120Z,0.80
2022-10-03T19:34:30.528Z,1.00
2022-10-03T19:38:16.710Z,1.20
2022-10-03T19:42:56.068Z,1.60
2022-10-03T19:46:43.834Z,0.80
2022-10-03T19:50:33.487Z,0.80
2022-10-03T19:54:43.439Z,1.10
2022-10-03T19:58:27.454Z,0.82
2022-10-03T20:02:11.036Z,0.90
2022-10-03T20:05:52.848Z,1.13
2022-10-03T20:09:36.533Z,0.70
2022-10-03T20:13:18.512Z,0.80
2022-10-03T20:17:10.311Z,0.90
2022-10-03T20:20:57.225Z,0.95
2022-10-03T20:24:45.397Z,0.90
2022-10-03T20:28:50.149Z,0.85
2022-10-03T20:32:34.565Z,0.85
2022-10-03T20:36:29.493Z,0.88
2022-10-03T20:40:30.901Z,1.17
2022-10-03T20:44:35.509Z,0.85
2022-10-03T20:48:25.470Z,0.80
2022-10-03T20:52:15.637Z,0.70
2022-10-03T20:56:02.667Z,0.77
2022-10-03T21:00:19.090Z,0.70
2022-10-03T21:04:11.170Z,1.00
2022-10-03T21:07:55.550Z,1.00
2022-10-03T21:11:39.730Z,1.08
2022-10-03T21:15:29.869Z,1.00
2022-10-03T21:19:37.828Z,1.10
2022-10-03T21:23:25.398Z,0.98
2022-10-03T21:27:13.808Z,1.10
2022-10-03T21:31:28.987Z,1.13
2022-10-03T21:35:17.125Z,1.30
2022-10-03T21:39:16.022Z,1.13
2022-10-03T21:43:12.759Z,1.13
2022-10-03T21:47:11.589Z,1.20
2022-10-03T21:50:58.432Z,1.23
2022-10-03T21:54:40.215Z,1.17
2022-10-03T21:58:37.094Z,1.38
2022-10-03T22:02:30.990Z,1.30
2022-10-03T22:06:24.863Z,1.33
2022-10-03T22:10:36.396Z,1.70
2022-10-03T22:14:30.094Z,1.50
2022-10-03T22:18:21.614Z,1.40
2022-10-03T22:22:18.243Z,1.70
2022-10-03T22:26:03.737Z,1.60
2022-10-03T22:29:45.608Z,1.52
2022-10-03T22:33:41.338Z,1.80
2022-10-03T22:37:23.425Z,1.73
2022-10-03T22:41:09.896Z,1.83
2022-10-03T22:44:54.594Z,2.13
2022-10-03T22:48:42.468Z,2.38
2022-10-03T22:52:28.667Z,2.17
2022-10-03T22:56:39.756Z,2.25
2022-10-03T23:00:27.873Z,2.25
2022-10-03T23:04:16.064Z,2.40
2022-10-03T23:08:04.129Z,2.33
2022-10-03T23:11:49.682Z,2.35
2022-10-03T23:15:35.691Z,2.30
2022-10-03T23:19:23.165Z,2.35
2022-10-03T23:23:15.260Z,2.30
2022-10-03T23:27:25.525Z,2.13
2022-10-03T23:31:07.680Z,2.10
2022-10-03T23:35:11.738Z,2.30
2022-10-03T23:38:58.822Z,2.13
2022-10-03T23:42:45.321Z,2.20
2022-10-03T23:46:30.963Z,2.08
2022-10-03T23:50:22.153Z,1.83
2022-10-03T23:54:08.205Z,1.60
2022-10-03T23:57:50.325Z,1.73
